Time;durP1;ratioP1;P1;durP2;ratioP2;P2;SDS_P1;SDS_P2;PMS_P1;PMS_P2;Temp;Humidity;BMP_temperature;BMP_pressure;BME280_temperature;BME280_humidity;BME280_pressure;Samples;Min_cycle;Max_cycle;Signal;HPM_P1;HPM_P2
2022/01/05 00:00:14;;;;;;;5.00;1.80;;;;;;;6.56;62.17;99342.25;675314;29;1516;-88
2022/01/05 00:00:35;;;;;;;5.68;2.10;;;;;;;6.56;62.20;99344.84;680057;29;918;-88
2022/01/05 00:00:55;;;;;;;4.95;2.10;;;;;;;6.56;62.01;99344.84;682883;28;1281;-89
2022/01/05 00:01:16;;;;;;;5.00;2.10;;;;;;;6.50;62.12;99336.91;677470;29;1210;-88
2022/01/05 00:01:39;;;;;;;4.03;1.80;;;;;;;6.47;62.03;99346.34;677660;29;1093;-88
2022/01/05 00:02:00;;;;;;;4.00;1.92;;;;;;;6.55;62.01;99347.38;679737;29;1447;-88
2022/01/05 00:02:21;;;;;;;4.85;1.90;;;;;;;6.55;62.56;99348.28;679565;29;1240;-88
2022/01/05 00:02:41;;;;;;;5.20;1.90;;;;;;;6.49;62.28;99337.75;674849;29;1193;-89
2022/01/05 00:03:04;;;;;;;6.03;2.10;;;;;;;6.46;62.45;99335.13;682776;28;1046;-89
2022/01/05 00:03:25;;;;;;;4.10;1.90;;;;;;;6.49;62.14;99344.66;680241;29;769;-88
2022/01/05 00:03:45;;;;;;;2.90;1.80;;;;;;;6.52;62.22;99336.97;685402;28;1139;-88
2022/01/05 00:04:06;;;;;;;2.63;1.80;;;;;;;6.44;62.33;99348.03;680073;29;1096;-88
2022/01/05 00:04:27;;;;;;;5.60;2.00;;;;;;;6.46;62.66;99349.78;680098;28;1205;-88
2022/01/05 00:04:47;;;;;;;7.33;2.10;;;;;;;6.49;62.90;99344.66;680006;29;1368;-88
2022/01/05 00:05:09;;;;;;;6.90;1.80;;;;;;;6.46;62.35;99348.06;680084;29;1308;-88
2022/01/05 00:05:30;;;;;;;6.70;2.00;;;;;;;6.41;62.42;99341.91;677648;29;982;-89
2022/01/05 00:05:51;;;;;;;5.40;1.80;;;;;;;6.41;62.30;99341.91;675108;29;1236;-88
2022/01/05 00:06:11;;;;;;;4.10;1.80;;;;;;;6.40;62.49;99335.84;677349;29;1213;-88
2022/01/05 00:06:32;;;;;;;5.60;1.88;;;;;;;6.44;62.34;99341.97;680040;29;1195;-88
2022/01/05 00:06:52;;;;;;;5.10;2.00;;;;;;;6.46;62.05;99350.66;677620;29;788;-88
2022/01/05 00:07:13;;;;;;;5.10;2.10;;;;;;;6.37;62.47;99345.25;674860;29;1129;-88
2022/01/05 00:07:33;;;;;;;2.97;1.70;;;;;;;6.34;62.66;99342.59;679962;29;1049;-88
2022/01/05 00:07:54;;;;;;;5.32;1.65;;;;;;;6.45;62.17;99356.69;680283;29;851;-88
2022/01/05 00:08:15;;;;;;;5.97;1.80;;;;;;;6.40;62.31;99355.72;679992;29;1194;-88
2022/01/05 00:08:36;;;;;;;5.82;1.77;;;;;;;6.46;62.32;99361.03;681563;29;1380;-88
2022/01/05 00:08:56;;;;;;;5.47;1.60;;;;;;;6.47;61.87;99354.13;680309;29;761;-88
2022/01/05 00:09:17;;;;;;;6.90;1.50;;;;;;;6.40;61.80;99356.56;682682;29;1198;-88
2022/01/05 00:09:37;;;;;;;6.38;1.60;;;;;;;6.41;62.15;99352.28;679215;29;1362;-88
2022/01/05 00:09:58;;;;;;;6.70;1.90;;;;;;;6.46;62.22;99355.84;685443;28;1240;-88
2022/01/05 00:10:19;;;;;;;5.93;1.90;;;;;;;6.46;62.08;99339.41;682543;29;1653;-88
2022/01/05 00:10:40;;;;;;;4.85;1.80;;;;;;;6.47;62.09;99341.16;680099;29;1218;-88
2022/01/05 00:11:01;;;;;;;4.13;1.70;;;;;;;6.40;61.84;99340.16;680029;29;1176;-89
2022/01/05 00:11:23;;;;;;;4.22;1.85;;;;;;;6.41;61.91;99353.16;680173;29;1113;-88
2022/01/05 00:11:43;;;;;;;3.80;1.95;;;;;;;6.40;62.02;99343.59;679510;29;1261;-87
2022/01/05 00:12:04;;;;;;;3.87;2.10;;;;;;;6.41;62.22;99335.03;674869;29;1160;-88
2022/01/05 00:12:25;;;;;;;3.50;1.90;;;;;;;6.54;62.02;99349.13;675066;29;840;-88
2022/01/05 00:12:55;;;;;;;5.38;2.00;;;;;;;6.52;61.84;99339.56;674714;29;1209;-88
2022/01/05 00:13:15;;;;;;;5.10;1.58;;;;;;;6.44;61.53;99337.66;674817;29;1113;-88
2022/01/05 00:13:36;;;;;;;4.70;1.65;;;;;;;6.41;61.49;99336.72;675886;29;1171;-88
2022/01/05 00:13:58;;;;;;;4.50;1.97;;;;;;;6.46;61.42;99332.53;682852;29;882;-88
2022/01/05 00:14:18;;;;;;;4.88;2.20;;;;;;;6.41;61.75;99334.13;674884;29;1260;-89
2022/01/05 00:14:39;;;;;;;7.22;2.15;;;;;;;6.40;61.81;99338.44;681730;29;1119;-89
2022/01/05 00:14:59;;;;;;;6.00;1.60;;;;;;;6.48;61.85;99353.28;682756;29;1072;-89
2022/01/05 00:15:20;;;;;;;5.73;1.70;;;;;;;6.42;61.73;99354.00;680300;29;1170;-88
2022/01/05 00:15:41;;;;;;;2.47;1.40;;;;;;;6.38;62.11;99334.09;682011;29;1156;-88
2022/01/05 00:16:01;;;;;;;3.83;1.70;;;;;;;6.49;61.49;99347.25;682362;29;1201;-87
2022/01/05 00:16:22;;;;;;;3.92;1.65;;;;;;;6.29;61.75;99325.25;682898;29;787;-88
2022/01/05 00:16:42;;;;;;;4.53;1.87;;;;;;;6.30;62.02;99329.59;684022;28;1364;-88
2022/01/05 00:17:03;;;;;;;4.13;1.70;;;;;;;6.34;61.49;99329.66;685397;28;1278;-87
2022/01/05 00:17:24;;;;;;;4.85;1.88;;;;;;;6.40;61.82;99342.75;681440;29;1117;-87
2022/01/05 00:17:44;;;;;;;5.77;2.20;;;;;;;6.30;61.80;99331.31;685432;28;1085;-88
2022/01/05 00:18:05;;;;;;;5.75;2.28;;;;;;;6.31;61.90;99330.47;682637;29;1210;-88
2022/01/05 00:18:25;;;;;;;5.30;2.17;;;;;;;6.32;61.72;99333.94;685491;28;854;-88
2022/01/05 00:18:46;;;;;;;4.70;1.90;;;;;;;6.35;61.92;99331.41;677766;29;1164;-88
2022/01/05 00:19:07;;;;;;;4.22;1.90;;;;;;;6.36;62.05;99333.16;679973;29;1123;-88
2022/01/05 00:19:27;;;;;;;4.23;2.10;;;;;;;6.44;61.78;99349.72;682143;29;1370;-88
2022/01/05 00:19:48;;;;;;;3.27;2.17;;;;;;;6.34;61.68;99327.06;679942;29;1220;-88
2022/01/05 00:20:09;;;;;;;3.85;2.08;;;;;;;6.39;61.97;99347.03;677439;29;1106;-88
2022/01/05 00:20:30;;;;;;;4.53;1.92;;;;;;;6.37;61.75;99334.88;674891;29;1200;-88
2022/01/05 00:20:51;;;;;;;6.03;1.90;;;;;;;6.29;62.12;99333.03;682851;28;1334;-88
2022/01/05 00:21:12;;;;;;;5.20;1.80;;;;;;;6.36;61.88;99336.63;682714;28;1137;-88
2022/01/05 00:21:33;;;;;;;5.70;1.75;;;;;;;6.46;61.63;99337.72;675439;29;1074;-87
2022/01/05 00:21:53;;;;;;;6.72;1.90;;;;;;;6.40;61.65;99332.38;677706;29;828;-88
2022/01/05 00:22:14;;;;;;;7.60;2.00;;;;;;;6.43;61.72;99337.63;674744;29;1200;-88
2022/01/05 00:22:43;;;;;;;4.63;1.80;;;;;;;6.37;61.71;99337.47;679950;29;1486;-88
2022/01/05 00:23:04;;;;;;;4.43;1.80;;;;;;;6.32;61.64;99326.16;682803;29;1036;-88
2022/01/05 00:23:24;;;;;;;4.47;1.90;;;;;;;6.36;61.81;99343.50;685258;28;1238;-87
2022/01/05 00:23:45;;;;;;;5.60;2.00;;;;;;;6.39;61.93;99346.19;682620;29;1238;-88
2022/01/05 00:24:07;;;;;;;6.00;1.92;;;;;;;6.30;61.92;99329.59;677662;29;1177;-88
2022/01/05 00:24:27;;;;;;;5.63;2.15;;;;;;;6.36;62.03;99338.31;677606;29;955;-88
2022/01/05 00:24:48;;;;;;;5.90;2.20;;;;;;;6.29;61.98;99332.16;684157;28;1954;-88
2022/01/05 00:25:09;;;;;;;3.85;2.00;;;;;;;6.41;62.07;99350.56;688045;28;988;-88
2022/01/05 00:25:29;;;;;;;7.05;2.33;;;;;;;6.41;62.29;99347.09;682706;29;1198;-88
2022/01/05 00:25:50;;;;;;;6.00;2.40;;;;;;;6.46;61.60;99348.06;677521;29;1065;-88
2022/01/05 00:26:10;;;;;;;7.00;2.67;;;;;;;6.41;61.83;99336.72;680034;29;1093;-88
2022/01/05 00:26:31;;;;;;;4.68;2.30;;;;;;;6.45;61.77;99354.09;685467;28;1122;-88
2022/01/05 00:26:51;;;;;;;7.00;2.20;;;;;;;6.45;61.62;99354.09;685504;28;1055;-88
2022/01/05 00:27:12;;;;;;;5.83;2.00;;;;;;;6.40;61.76;99350.53;682542;29;1096;-88
2022/01/05 00:27:32;;;;;;;5.90;1.80;;;;;;;6.28;61.91;99344.22;686120;28;1168;-88
2022/01/05 00:27:53;;;;;;;5.30;1.97;;;;;;;6.37;62.22;99358.22;682021;29;1501;-88
2022/01/05 00:28:14;;;;;;;6.30;2.20;;;;;;;6.28;62.32;99341.63;682767;29;1253;-88
2022/01/05 00:28:35;;;;;;;5.90;2.10;;;;;;;6.34;62.30;99353.88;681084;29;1128;-88
2022/01/05 00:28:55;;;;;;;8.32;2.20;;;;;;;6.34;62.39;99358.16;677594;29;1231;-88
2022/01/05 00:29:16;;;;;;;8.77;2.10;;;;;;;6.26;62.19;99345.91;682670;29;1036;-88
2022/01/05 00:29:39;;;;;;;8.40;2.37;;;;;;;6.32;62.47;99344.31;682239;28;1282;-88
2022/01/05 00:29:59;;;;;;;2.95;2.00;;;;;;;6.32;62.50;99333.94;688106;28;1207;-88
2022/01/05 00:30:20;;;;;;;2.95;2.00;;;;;;;6.29;62.24;99346.00;685491;28;1086;-88
2022/01/05 00:30:41;;;;;;;3.72;1.80;;;;;;;6.28;62.16;99336.44;677653;29;1243;-88
2022/01/05 00:31:01;;;;;;;4.10;1.80;;;;;;;6.37;62.18;99353.91;674853;29;1156;-88
2022/01/05 00:31:23;;;;;;;4.72;1.98;;;;;;;6.36;61.87;99356.47;688142;28;1088;-88
2022/01/05 00:31:44;;;;;;;3.03;2.00;;;;;;;6.33;62.07;99349.53;685901;28;1174;-87
2022/01/05 00:32:05;;;;;;;4.07;2.40;;;;;;;6.29;61.81;99353.75;674560;29;1407;-87
2022/01/05 00:32:26;;;;;;;5.70;2.40;;;;;;;6.29;62.52;99351.16;676922;29;1613;-88
2022/01/05 00:32:46;;;;;;;7.50;2.40;;;;;;;6.32;62.30;99352.94;679375;29;1328;-88
2022/01/05 00:33:07;;;;;;;6.53;2.00;;;;;;;6.26;62.63;99334.69;680075;29;1109;-88
2022/01/05 00:33:28;;;;;;;5.13;2.20;;;;;;;6.28;62.42;99346.81;674992;29;1068;-88
2022/01/05 00:33:50;;;;;;;4.53;2.47;;;;;;;6.33;62.28;99351.22;680017;29;1085;-88
2022/01/05 00:34:11;;;;;;;5.40;2.50;;;;;;;6.41;62.48;99357.44;680077;29;1237;-88
2022/01/05 00:34:31;;;;;;;4.55;2.50;;;;;;;6.36;62.11;99349.59;685235;28;1203;-88
2022/01/05 00:34:52;;;;;;;4.70;2.22;;;;;;;6.34;62.00;99345.19;685591;28;784;-88
2022/01/05 00:35:21;;;;;;;3.90;2.10;;;;;;;6.34;62.22;99346.09;680173;29;823;-88
2022/01/05 00:35:42;;;;;;;2.50;1.70;;;;;;;6.35;61.72;99346.94;682272;28;1401;-88
2022/01/05 00:36:04;;;;;;;2.65;1.73;;;;;;;6.34;62.16;99346.09;682637;29;1217;-88
2022/01/05 00:36:24;;;;;;;2.97;2.03;;;;;;;6.39;62.12;99351.38;682875;29;886;-88
2022/01/05 00:36:45;;;;;;;5.00;2.30;;;;;;;6.30;62.30;99347.72;677485;29;1283;-88
2022/01/05 00:37:06;;;;;;;7.18;2.70;;;;;;;6.34;62.49;99345.19;682819;29;1128;-88
2022/01/05 00:37:26;;;;;;;7.75;2.40;;;;;;;6.37;62.57;99342.66;680093;29;1016;-88
2022/01/05 00:37:47;;;;;;;6.53;2.20;;;;;;;6.40;62.13;99350.53;680120;29;1466;-88
2022/01/05 00:38:07;;;;;;;4.70;2.10;;;;;;;6.40;62.16;99342.75;680016;29;1010;-88
2022/01/05 00:38:28;;;;;;;4.50;2.60;;;;;;;6.43;62.10;99340.22;685221;28;1161;-87
2022/01/05 00:38:49;;;;;;;5.60;2.53;;;;;;;6.45;62.25;99348.91;682926;28;1604;-88
2022/01/05 00:39:09;;;;;;;5.38;2.30;;;;;;;6.42;61.71;99346.25;677421;29;1189;-88
2022/01/05 00:39:30;;;;;;;5.97;2.10;;;;;;;6.42;62.35;99333.28;679687;29;1046;-88
2022/01/05 00:39:51;;;;;;;4.80;2.20;;;;;;;6.45;62.16;99333.38;680025;29;804;-88
2022/01/05 00:40:11;;;;;;;4.40;2.30;;;;;;;6.53;62.19;99352.56;685365;28;1145;-88
2022/01/05 00:40:32;;;;;;;6.37;2.40;;;;;;;6.46;62.39;99350.66;685214;28;1191;-88
2022/01/05 00:40:52;;;;;;;6.40;2.50;;;;;;;6.39;62.04;99335.81;682916;29;779;-87
2022/01/05 00:41:13;;;;;;;7.00;2.42;;;;;;;6.40;62.05;99345.34;677463;29;1075;-88
2022/01/05 00:41:34;;;;;;;4.90;2.23;;;;;;;6.32;62.36;99339.13;680919;29;1156;-88
2022/01/05 00:41:54;;;;;;;6.80;2.20;;;;;;;6.34;62.34;99342.59;677528;29;1204;-88
2022/01/05 00:42:15;;;;;;;7.28;2.20;;;;;;;6.41;62.22;99353.16;679563;29;1740;-88
2022/01/05 00:42:36;;;;;;;6.63;2.20;;;;;;;6.35;62.18;99332.28;672468;29;1529;-88
2022/01/05 00:42:56;;;;;;;5.80;2.20;;;;;;;6.38;62.52;99336.66;677379;29;1193;-88
2022/01/05 00:43:17;;;;;;;5.22;2.08;;;;;;;6.34;62.57;99334.84;679901;29;1152;-89
2022/01/05 00:43:37;;;;;;;6.30;1.90;;;;;;;6.38;62.18;99344.44;679992;28;1354;-88
2022/01/05 00:43:58;;;;;;;8.65;2.00;;;;;;;6.33;62.53;99343.44;682650;29;1273;-88
2022/01/05 00:44:21;;;;;;;8.10;2.00;;;;;;;6.36;62.52;99346.09;679821;29;1117;-88
2022/01/05 00:44:41;;;;;;;6.32;2.10;;;;;;;6.35;62.47;99342.66;684516;28;1915;-88
2022/01/05 00:45:03;;;;;;;5.20;2.00;;;;;;;6.42;62.30;99354.00;680062;29;1156;-88
2022/01/05 00:45:23;;;;;;;5.00;2.20;;;;;;;6.35;62.62;99339.16;679390;29;1253;-88
2022/01/05 00:45:44;;;;;;;4.53;2.10;;;;;;;6.42;62.60;99348.84;682638;28;1167;-88
2022/01/05 00:46:05;;;;;;;5.90;2.05;;;;;;;6.35;62.69;99341.75;679856;29;1195;-87
2022/01/05 00:46:25;;;;;;;6.07;1.92;;;;;;;6.35;62.54;99341.75;680112;28;1269;-88
2022/01/05 00:46:47;;;;;;;7.25;2.10;;;;;;;6.44;62.65;99352.31;680020;29;1247;-88
2022/01/05 00:47:07;;;;;;;7.10;2.40;;;;;;;6.34;62.79;99356.44;685286;28;1290;-88
2022/01/05 00:47:28;;;;;;;5.50;2.30;;;;;;;6.23;62.55;99345.84;681826;28;1750;-88
2022/01/05 00:47:48;;;;;;;5.73;2.20;;;;;;;6.30;62.60;99354.63;680276;29;1154;-88
2022/01/05 00:48:09;;;;;;;3.40;2.00;;;;;;;6.29;63.02;99343.41;674737;29;1167;-87
2022/01/05 00:48:32;;;;;;;3.15;1.95;;;;;;;6.27;62.29;99341.59;680349;29;1205;-89
2022/01/05 00:48:53;;;;;;;2.70;2.30;;;;;;;6.29;63.06;99340.81;680079;29;1366;-88
2022/01/05 00:49:14;;;;;;;3.10;2.13;;;;;;;6.36;62.52;99353.88;682714;29;1258;-88
2022/01/05 00:49:34;;;;;;;2.28;1.92;;;;;;;6.25;62.77;99344.16;674381;29;1255;-88
2022/01/05 00:49:55;;;;;;;3.20;1.70;;;;;;;6.32;62.48;99352.94;677708;29;1139;-88
2022/01/05 00:50:15;;;;;;;5.00;2.00;;;;;;;6.24;62.47;99339.81;679906;29;1201;-88
2022/01/05 00:50:36;;;;;;;5.50;2.17;;;;;;;6.21;62.74;99339.75;679969;29;1041;-88
2022/01/05 00:50:58;;;;;;;4.67;2.20;;;;;;;6.27;62.63;99342.47;677377;29;1297;-88
2022/01/05 00:51:18;;;;;;;3.65;2.20;;;;;;;6.29;62.91;99346.00;680110;29;1073;-88
2022/01/05 00:51:39;;;;;;;4.47;2.00;;;;;;;6.24;62.86;99337.22;683745;28;1277;-89
2022/01/05 00:52:00;;;;;;;5.63;2.05;;;;;;;6.23;62.72;99338.06;687552;28;1203;-88
2022/01/05 00:52:20;;;;;;;5.43;2.07;;;;;;;6.27;62.84;99332.09;685052;28;1322;-88
2022/01/05 00:52:41;;;;;;;6.32;2.40;;;;;;;6.29;62.88;99338.22;679852;29;1317;-88
2022/01/05 00:53:01;;;;;;;5.22;2.50;;;;;;;6.30;62.46;99339.06;682647;29;1072;-88
2022/01/05 00:53:22;;;;;;;5.63;2.40;;;;;;;6.32;62.54;99346.88;680123;29;748;-89
2022/01/05 00:53:43;;;;;;;4.15;2.10;;;;;;;6.33;62.59;99339.16;682680;29;1282;-88
2022/01/05 00:54:04;;;;;;;5.55;2.28;;;;;;;6.39;62.33;99351.38;674789;29;1137;-88
2022/01/05 00:54:24;;;;;;;6.90;2.60;;;;;;;6.33;62.43;99352.13;680096;29;1058;-88
2022/01/05 00:54:45;;;;;;;7.13;2.60;;;;;;;6.20;62.77;99343.16;682188;29;1090;-88
2022/01/05 00:55:09;;;;;;;5.85;2.22;;;;;;;6.20;62.50;99337.13;685226;28;1314;-88
2022/01/05 00:55:30;;;;;;;5.25;2.20;;;;;;;6.25;62.67;99349.34;682880;28;1113;-88
2022/01/05 00:55:50;;;;;;;4.90;2.30;;;;;;;6.17;62.62;99332.75;680463;28;1247;-88
2022/01/05 00:56:11;;;;;;;6.07;2.43;;;;;;;6.19;62.77;99350.94;679569;29;1033;-89
2022/01/05 00:56:31;;;;;;;6.20;2.40;;;;;;;6.21;62.85;99344.06;680124;29;1352;-88
2022/01/05 00:56:52;;;;;;;7.03;2.40;;;;;;;6.21;62.78;99344.94;682855;29;749;-88
2022/01/05 00:57:12;;;;;;;7.25;2.53;;;;;;;6.20;62.58;99337.97;680918;29;1088;-88
2022/01/05 00:57:33;;;;;;;6.43;2.50;;;;;;;6.29;62.45;99350.28;680166;29;1140;-88
2022/01/05 00:57:53;;;;;;;6.50;2.60;;;;;;;6.30;62.83;99359.81;677453;29;1153;-88
2022/01/05 00:58:14;;;;;;;4.30;2.30;;;;;;;6.26;62.77;99343.31;685221;28;1553;-88
2022/01/05 00:58:35;;;;;;;6.70;2.30;;;;;;;6.43;62.50;99360.94;680015;29;1222;-89
2022/01/05 00:58:55;;;;;;;6.40;2.50;;;;;;;6.39;62.16;99353.97;682741;29;1177;-88
2022/01/05 00:59:16;;;;;;;7.70;2.60;;;;;;;6.42;62.31;99354.00;680674;29;1695;-88
2022/01/05 00:59:36;;;;;;;8.82;3.05;;;;;;;6.40;62.10;99347.94;683373;28;1200;-88
2022/01/05 01:00:09;;;;;;;8.13;2.90;;;;;;;6.35;62.04;99341.75;679971;29;1160;-88
2022/01/05 01:00:30;;;;;;;5.90;2.47;;;;;;;6.34;62.07;99342.59;680418;29;937;-88
2022/01/05 01:00:50;;;;;;;3.83;2.40;;;;;;;6.47;62.37;99348.94;681974;29;1465;-88
2022/01/05 01:01:11;;;;;;;4.40;2.50;;;;;;;6.36;62.37;99339.22;682415;29;1308;-88
2022/01/05 01:01:32;;;;;;;3.00;2.30;;;;;;;6.39;62.13;99349.63;676874;29;1808;-88
2022/01/05 01:01:52;;;;;;;4.85;2.38;;;;;;;6.40;62.03;99345.34;677536;29;824;-89
2022/01/05 01:02:13;;;;;;;5.73;2.60;;;;;;;6.38;62.24;99344.44;679990;29;1716;-87
2022/01/05 01:02:33;;;;;;;6.25;2.60;;;;;;;6.38;62.13;99337.53;682446;28;1186;-88
2022/01/05 01:02:54;;;;;;;3.40;2.20;;;;;;;6.40;62.00;99345.34;672299;29;1186;-88
2022/01/05 01:03:15;;;;;;;2.93;2.20;;;;;;;6.41;62.15;99331.53;674640;29;1169;-89
2022/01/05 01:03:36;;;;;;;3.95;2.30;;;;;;;6.46;61.93;99350.66;678533;29;1121;-88
2022/01/05 01:03:56;;;;;;;4.60;2.50;;;;;;;6.43;62.30;99353.16;680073;29;1307;-88
2022/01/05 01:04:45;;;;;;;4.80;2.50;;;;;;;6.46;62.16;99358.44;677426;29;1085;-88
2022/01/05 01:05:06;;;;;;;5.07;2.67;;;;;;;6.50;62.03;99354.19;682637;29;1206;-88
2022/01/05 01:05:27;;;;;;;4.00;2.60;;;;;;;6.46;62.02;99340.31;682884;29;815;-88
2022/01/05 01:05:47;;;;;;;3.10;2.45;;;;;;;6.48;62.55;99342.91;678473;29;1052;-88
2022/01/05 01:06:08;;;;;;;5.00;2.50;;;;;;;6.55;61.92;99348.28;674875;29;982;-89
2022/01/05 01:06:29;;;;;;;9.65;3.03;;;;;;;6.56;61.87;99357.78;682440;29;1147;-88
2022/01/05 01:06:49;;;;;;;10.90;2.90;;;;;;;6.53;61.83;99347.38;682822;28;1634;-89
2022/01/05 01:07:10;;;;;;;9.30;2.78;;;;;;;6.61;61.83;99351.81;682660;29;1162;-88
2022/01/05 01:07:30;;;;;;;8.03;2.40;;;;;;;6.55;61.51;99343.09;682976;28;1215;-89
2022/01/05 01:07:51;;;;;;;6.00;2.40;;;;;;;6.60;62.24;99352.66;677602;29;828;-88
2022/01/05 01:08:12;;;;;;;4.60;2.13;;;;;;;6.57;61.84;99345.72;682575;28;1264;-88
2022/01/05 01:08:32;;;;;;;2.55;2.20;;;;;;;6.52;61.97;99337.81;682574;29;1278;-88
2022/01/05 01:08:53;;;;;;;3.25;2.42;;;;;;;6.55;61.90;99344.78;680204;29;845;-88
2022/01/05 01:09:13;;;;;;;3.30;2.53;;;;;;;6.60;61.96;99348.38;677361;29;1155;-88
2022/01/05 01:09:34;;;;;;;3.53;2.25;;;;;;;6.53;61.85;99339.59;673070;29;1431;-88
2022/01/05 01:09:54;;;;;;;4.17;2.40;;;;;;;6.55;61.68;99353.44;682489;29;812;-88
2022/01/05 01:10:15;;;;;;;5.40;2.70;;;;;;;6.46;61.83;99345.47;683203;28;1268;-88
2022/01/05 01:10:49;;;;;;;5.57;2.90;;;;;;;6.49;61.61;99340.34;679938;29;1622;-88
2022/01/05 01:11:10;;;;;;;6.53;2.30;;;;;;;6.53;61.91;99357.75;676019;29;1592;-88
2022/01/05 01:11:30;;;;;;;5.65;2.25;;;;;;;6.47;61.73;99330.78;685269;28;1186;-88
2022/01/05 01:11:51;;;;;;;7.32;2.60;;;;;;;6.57;61.74;99359.53;682691;29;735;-88
2022/01/05 01:12:11;;;;;;;6.30;2.50;;;;;;;6.51;61.98;99343.84;677311;29;1036;-88
2022/01/05 01:12:34;;;;;;;7.47;2.55;;;;;;;6.48;61.71;99354.16;677918;29;1123;-88
2022/01/05 01:12:55;;;;;;;5.45;2.60;;;;;;;6.48;61.64;99350.69;679941;29;1125;-88
2022/01/05 01:13:17;;;;;;;5.60;2.50;;;;;;;6.44;61.87;99348.03;682345;28;1060;-88
2022/01/05 01:13:37;;;;;;;4.28;2.50;;;;;;;6.48;62.29;99359.34;680072;29;1073;-88
2022/01/05 01:13:58;;;;;;;5.95;2.30;;;;;;;6.40;62.13;99345.34;682692;29;1196;-88
2022/01/05 01:14:19;;;;;;;10.88;2.20;;;;;;;6.48;61.75;99343.78;679924;29;1001;-88
2022/01/05 01:14:39;;;;;;;11.83;2.13;;;;;;;6.42;61.92;99348.84;682592;29;1040;-88
2022/01/05 01:15:02;;;;;;;11.77;2.20;;;;;;;6.49;61.96;99342.94;681201;29;1108;-88
2022/01/05 01:15:23;;;;;;;7.05;2.72;;;;;;;6.47;61.89;99347.22;682994;28;1358;-88
2022/01/05 01:15:45;;;;;;;6.15;2.63;;;;;;;6.48;61.93;99343.78;682336;29;1156;-87
2022/01/05 01:16:24;;;;;;;6.47;2.70;;;;;;;6.58;61.81;99345.72;677080;29;1555;-87
2022/01/05 01:16:44;;;;;;;4.80;2.10;;;;;;;6.55;61.85;99337.91;679564;29;1065;-88
2022/01/05 01:17:05;;;;;;;5.65;2.25;;;;;;;6.64;62.05;99349.31;682827;28;1137;-88
2022/01/05 01:17:48;;;;;;;7.17;2.53;;;;;;;6.64;61.76;99364.84;685510;28;944;-88
2022/01/05 01:18:09;;;;;;;7.35;2.28;;;;;;;6.60;61.96;99350.97;680314;29;1546;-88
2022/01/05 01:19:00;;;;;;;6.17;1.83;;;;;;;6.67;61.42;99362.31;677157;29;1184;-88
2022/01/05 01:19:21;;;;;;;5.30;2.10;;;;;;;6.67;61.47;99357.13;681796;29;1551;-88
2022/01/05 01:19:41;;;;;;;5.13;2.10;;;;;;;6.61;61.59;99349.22;681299;29;1195;-88
2022/01/05 01:20:03;;;;;;;5.17;1.93;;;;;;;6.65;61.44;99361.41;682780;28;1097;-88
2022/01/05 01:20:24;;;;;;;4.68;1.80;;;;;;;6.70;61.54;99371.03;677481;29;1277;-89
2022/01/05 01:20:47;;;;;;;4.15;1.73;;;;;;;6.64;61.47;99350.16;682195;29;1247;-87
2022/01/05 01:21:08;;;;;;;5.53;1.80;;;;;;;6.68;61.27;99361.47;680194;29;1634;-88
2022/01/05 01:21:28;;;;;;;7.47;2.00;;;;;;;6.67;61.39;99360.63;685326;28;922;-88
2022/01/05 01:21:49;;;;;;;8.10;2.10;;;;;;;6.64;61.72;99355.34;677411;29;831;-88
2022/01/05 01:22:10;;;;;;;6.45;2.20;;;;;;;6.65;61.54;99358.81;682533;29;1136;-88
2022/01/05 01:22:32;;;;;;;4.97;2.05;;;;;;;6.68;61.13;99356.28;680151;29;1290;-88
2022/01/05 01:22:53;;;;;;;5.88;2.15;;;;;;;6.76;61.42;99365.13;679406;29;875;-88
2022/01/05 01:23:18;;;;;;;7.68;2.45;;;;;;;6.70;61.67;99354.63;678981;29;1296;-88
2022/01/05 01:23:40;;;;;;;8.77;2.30;;;;;;;6.64;61.28;99357.09;683874;28;1441;-88
2022/01/05 01:24:01;;;;;;;8.68;2.10;;;;;;;6.71;61.61;99359.00;679964;29;1133;-88
2022/01/05 01:24:21;;;;;;;8.15;2.20;;;;;;;6.74;61.25;99361.63;680112;29;1448;-88
2022/01/05 01:24:42;;;;;;;6.88;2.10;;;;;;;6.72;61.33;99363.34;683703;28;1895;-88
2022/01/05 01:25:04;;;;;;;4.93;2.03;;;;;;;6.67;61.40;99354.53;677408;29;1111;-88
2022/01/05 01:25:25;;;;;;;2.33;2.10;;;;;;;6.67;61.64;99360.63;677652;29;1131;-88
2022/01/05 01:25:46;;;;;;;3.38;2.08;;;;;;;6.63;61.66;99357.94;681908;29;1499;-88
2022/01/05 01:26:07;;;;;;;3.50;1.80;;;;;;;6.63;61.86;99356.19;682475;29;1142;-87
2022/01/05 01:26:29;;;;;;;6.95;2.10;;;;;;;6.70;61.25;99363.25;683745;28;1218;-88
2022/01/05 01:26:50;;;;;;;8.43;2.47;;;;;;;6.68;61.32;99357.19;679968;29;1245;-88
2022/01/05 01:27:10;;;;;;;9.20;2.58;;;;;;;6.66;61.34;99356.28;679914;29;1151;-88
2022/01/05 01:27:31;;;;;;;6.20;2.20;;;;;;;6.70;61.47;99365.84;677693;29;1113;-88
2022/01/05 01:27:52;;;;;;;4.97;2.03;;;;;;;6.67;61.46;99360.63;682425;29;795;-87
2022/01/05 01:28:13;;;;;;;7.40;2.30;;;;;;;6.69;61.62;99358.06;679839;29;1059;-88
2022/01/05 01:28:33;;;;;;;7.38;2.42;;;;;;;6.65;61.30;99358.81;679931;29;1211;-88
2022/01/05 01:28:55;;;;;;;7.82;2.40;;;;;;;6.66;61.19;99352.78;680153;29;943;-88
2022/01/05 01:29:15;;;;;;;6.20;2.08;;;;;;;6.54;61.95;99362.06;677182;29;1214;-88
2022/01/05 01:29:36;;;;;;;7.88;2.30;;;;;;;6.45;62.06;99359.28;674141;29;1338;-88
2022/01/05 01:29:57;;;;;;;6.55;2.22;;;;;;;6.43;61.93;99354.06;679891;29;1131;-88
2022/01/05 01:30:17;;;;;;;3.90;2.10;;;;;;;6.49;61.61;99366.28;679760;28;1201;-89
2022/01/05 01:30:38;;;;;;;4.13;2.10;;;;;;;6.53;61.67;99362.91;677201;29;1487;-88
2022/01/05 01:30:58;;;;;;;6.72;2.20;;;;;;;6.52;61.46;99355.97;674826;29;939;-88
2022/01/05 01:31:19;;;;;;;7.13;2.10;;;;;;;6.52;61.82;99358.56;680132;29;1264;-88
2022/01/05 01:31:40;;;;;;;9.30;2.08;;;;;;;6.56;61.84;99372.44;679939;29;1257;-88
2022/01/05 01:32:01;;;;;;;8.07;2.30;;;;;;;6.47;61.55;99352.41;677190;29;1311;-88
2022/01/05 01:32:21;;;;;;;9.13;2.88;;;;;;;6.56;61.92;99359.50;674747;29;1182;-88
2022/01/05 01:32:42;;;;;;;6.63;2.75;;;;;;;6.60;61.54;99363.03;681790;29;1204;-88
2022/01/05 01:33:03;;;;;;;5.90;2.83;;;;;;;6.56;61.84;99352.59;679829;29;1028;-87
2022/01/05 01:33:23;;;;;;;5.20;2.53;;;;;;;6.58;61.36;99360.44;680049;29;1184;-88
2022/01/05 01:33:45;;;;;;;4.22;2.33;;;;;;;6.60;61.44;99357.84;680318;29;1187;-88
2022/01/05 01:34:05;;;;;;;5.15;2.10;;;;;;;6.58;61.76;99356.09;679868;29;1910;-88
2022/01/05 01:34:26;;;;;;;5.43;1.90;;;;;;;6.57;61.45;99354.34;682726;29;791;-88
2022/01/05 01:35:04;;;;;;;7.20;1.95;;;;;;;6.65;61.36;99356.22;682577;29;1250;-88
2022/01/05 01:35:25;;;;;;;7.70;2.20;;;;;;;6.67;61.54;99357.13;687949;28;1314;-86
2022/01/05 01:35:46;;;;;;;7.18;2.40;;;;;;;6.69;61.28;99373.63;687155;28;1639;-86
2022/01/05 01:36:07;;;;;;;7.60;2.25;;;;;;;6.66;61.27;99368.34;682087;29;1159;-86
2022/01/05 01:36:27;;;;;;;8.95;2.30;;;;;;;6.60;61.17;99363.03;677516;29;750;-86
2022/01/05 01:36:48;;;;;;;7.10;2.10;;;;;;;6.60;61.39;99361.31;677013;29;773;-86
2022/01/05 01:37:08;;;;;;;5.88;2.17;;;;;;;6.65;61.38;99367.50;679897;29;1088;-86
2022/01/05 01:38:35;;;;;;;8.00;2.50;;;;;;;6.57;60.80;99356.09;680579;29;1139;-86
2022/01/05 01:38:55;;;;;;;7.70;2.60;;;;;;;6.54;61.47;99349.13;677928;29;1383;-86
2022/01/05 01:39:16;;;;;;;8.80;2.60;;;;;;;6.63;61.36;99376.94;675295;29;1203;-86
2022/01/05 01:39:36;;;;;;;4.80;2.07;;;;;;;6.50;61.37;99362.84;679492;29;1238;-87
2022/01/05 01:39:57;;;;;;;3.97;1.90;;;;;;;6.52;61.17;99366.31;677197;29;1199;-86
2022/01/05 01:40:18;;;;;;;2.72;1.75;;;;;;;6.43;61.72;99366.13;679776;29;1216;-86
2022/01/05 01:40:39;;;;;;;4.50;1.80;;;;;;;6.43;61.81;99379.09;679793;29;1454;-86
2022/01/05 01:41:00;;;;;;;6.28;2.10;;;;;;;6.36;61.85;99364.25;679925;29;1077;-86
2022/01/05 01:41:20;;;;;;;6.10;2.13;;;;;;;6.29;61.73;99364.13;678881;29;2345;-86
2022/01/05 01:41:41;;;;;;;5.30;2.40;;;;;;;6.44;61.86;99368.75;678859;29;1263;-86
2022/01/05 01:42:02;;;;;;;4.00;2.27;;;;;;;6.55;61.65;99374.19;679989;28;2222;-86
2022/01/05 01:42:22;;;;;;;4.65;2.60;;;;;;;6.57;61.52;99372.50;676181;29;1209;-86
2022/01/05 01:42:43;;;;;;;4.82;2.30;;;;;;;6.55;61.71;99375.88;676987;29;1215;-86
2022/01/05 01:43:03;;;;;;;5.77;2.30;;;;;;;6.56;61.42;99362.09;677220;29;1165;-86
2022/01/05 01:43:24;;;;;;;4.63;1.90;;;;;;;6.43;61.14;99379.09;677398;29;1191;-86
2022/01/05 01:43:44;;;;;;;3.50;1.83;;;;;;;6.45;61.67;99369.66;682376;29;1148;-85
2022/01/05 01:44:06;;;;;;;2.40;1.80;;;;;;;6.53;61.72;99381.06;684916;28;1275;-86
2022/01/05 01:44:26;;;;;;;4.03;1.98;;;;;;;6.48;61.71;99390.44;682673;28;813;-86
2022/01/05 01:44:47;;;;;;;6.53;2.27;;;;;;;6.36;61.96;99380.69;679362;29;1978;-86
2022/01/05 01:45:08;;;;;;;6.90;2.38;;;;;;;6.19;62.03;99361.28;679940;29;1191;-86
2022/01/05 01:45:28;;;;;;;7.45;2.60;;;;;;;6.10;62.58;99380.94;674765;29;951;-86
2022/01/05 01:45:49;;;;;;;5.53;2.50;;;;;;;6.12;62.35;99380.97;676388;29;1320;-86